METAR Data
IDs: Format: Raw Decoded Include TAF

Data at: 0157 UTC 29 Nov 2020

METAR for:KPRO (Perry Muni, IA, US)
Text:KPRO 290155Z AUTO 19007KT 10SM CLR 02/M01 A2999 RMK AO2 T00211008
Temperature: 2.1°C ( 36°F)
Dewpoint: -0.8°C ( 31°F) [RH = 81%]
Pressure (altimeter):29.99 inches Hg (1015.7 mb)
Winds:from the S (190 degrees) at 8 MPH (7 knots; 3.6 m/s)
Visibility:10 or more sm (16+ km)
Ceiling:at least 12,000 feet AGL
Clouds:sky clear below 12,000 feet AGL
QC Flag:automated observation with no human augmentation